sensor_id;sensor_type;location;lat;lon;timestamp;P1;durP1;ratioP1;P2;durP2;ratioP2
57643;SDS011;43474;46.510;6.686;2023-02-01T00:00:32;16.65;;;8.30;;
57643;SDS011;43474;46.510;6.686;2023-02-01T00:03:19;20.58;;;8.05;;
57643;SDS011;43474;46.510;6.686;2023-02-01T00:05:54;17.73;;;8.55;;
57643;SDS011;43474;46.510;6.686;2023-02-01T00:08:20;14.18;;;6.78;;
57643;SDS011;43474;46.510;6.686;2023-02-01T00:10:45;16.40;;;7.18;;
57643;SDS011;43474;46.510;6.686;2023-02-01T00:13:11;17.98;;;7.43;;
57643;SDS011;43474;46.510;6.686;2023-02-01T00:15:37;16.98;;;7.47;;
57643;SDS011;43474;46.510;6.686;2023-02-01T00:18:02;16.35;;;7.60;;
57643;SDS011;43474;46.510;6.686;2023-02-01T00:20:28;15.00;;;7.40;;
57643;SDS011;43474;46.510;6.686;2023-02-01T00:22:53;13.77;;;6.65;;
57643;SDS011;43474;46.510;6.686;2023-02-01T00:25:19;17.30;;;7.63;;
57643;SDS011;43474;46.510;6.686;2023-02-01T00:27:48;14.15;;;7.88;;
57643;SDS011;43474;46.510;6.686;2023-02-01T00:30:14;14.25;;;6.93;;
57643;SDS011;43474;46.510;6.686;2023-02-01T00:32:40;17.20;;;7.32;;
57643;SDS011;43474;46.510;6.686;2023-02-01T00:35:06;17.00;;;7.32;;
57643;SDS011;43474;46.510;6.686;2023-02-01T00:37:33;19.55;;;7.65;;
57643;SDS011;43474;46.510;6.686;2023-02-01T00:39:58;18.63;;;8.38;;
57643;SDS011;43474;46.510;6.686;2023-02-01T00:42:24;13.85;;;7.65;;
57643;SDS011;43474;46.510;6.686;2023-02-01T00:44:50;16.83;;;8.55;;
57643;SDS011;43474;46.510;6.686;2023-02-01T00:47:15;19.80;;;8.70;;
57643;SDS011;43474;46.510;6.686;2023-02-01T00:49:41;21.75;;;7.57;;
57643;SDS011;43474;46.510;6.686;2023-02-01T00:52:07;20.65;;;8.13;;
57643;SDS011;43474;46.510;6.686;2023-02-01T00:54:32;18.52;;;8.05;;
57643;SDS011;43474;46.510;6.686;2023-02-01T00:56:58;17.15;;;7.80;;
57643;SDS011;43474;46.510;6.686;2023-02-01T00:59:23;18.20;;;8.07;;
57643;SDS011;43474;46.510;6.686;2023-02-01T01:01:49;18.98;;;8.93;;
57643;SDS011;43474;46.510;6.686;2023-02-01T01:04:14;16.17;;;7.63;;
57643;SDS011;43474;46.510;6.686;2023-02-01T01:06:40;13.40;;;7.07;;
57643;SDS011;43474;46.510;6.686;2023-02-01T01:09:06;16.90;;;7.50;;
57643;SDS011;43474;46.510;6.686;2023-02-01T01:11:34;14.85;;;6.93;;
57643;SDS011;43474;46.510;6.686;2023-02-01T01:14:01;15.90;;;6.68;;
57643;SDS011;43474;46.510;6.686;2023-02-01T01:16:28;15.00;;;7.60;;
57643;SDS011;43474;46.510;6.686;2023-02-01T01:18:55;16.30;;;7.30;;
57643;SDS011;43474;46.510;6.686;2023-02-01T01:21:21;20.95;;;8.52;;
57643;SDS011;43474;46.510;6.686;2023-02-01T01:23:47;17.77;;;7.95;;
57643;SDS011;43474;46.510;6.686;2023-02-01T01:26:15;18.20;;;7.57;;
57643;SDS011;43474;46.510;6.686;2023-02-01T01:28:42;18.73;;;7.45;;
57643;SDS011;43474;46.510;6.686;2023-02-01T01:31:08;15.05;;;6.75;;
57643;SDS011;43474;46.510;6.686;2023-02-01T01:33:35;17.38;;;7.40;;
57643;SDS011;43474;46.510;6.686;2023-02-01T01:36:01;15.18;;;7.50;;
57643;SDS011;43474;46.510;6.686;2023-02-01T01:38:26;17.88;;;6.82;;
57643;SDS011;43474;46.510;6.686;2023-02-01T01:40:52;16.50;;;7.72;;
57643;SDS011;43474;46.510;6.686;2023-02-01T01:43:18;15.95;;;7.32;;
57643;SDS011;43474;46.510;6.686;2023-02-01T01:45:47;17.67;;;7.93;;
57643;SDS011;43474;46.510;6.686;2023-02-01T01:48:18;18.98;;;7.68;;
57643;SDS011;43474;46.510;6.686;2023-02-01T01:50:54;17.52;;;8.23;;
57643;SDS011;43474;46.510;6.686;2023-02-01T01:53:28;18.90;;;7.00;;
57643;SDS011;43474;46.510;6.686;2023-02-01T01:55:59;15.30;;;7.50;;
57643;SDS011;43474;46.510;6.686;2023-02-01T01:58:26;14.38;;;7.28;;
57643;SDS011;43474;46.510;6.686;2023-02-01T02:00:55;15.93;;;6.70;;
57643;SDS011;43474;46.510;6.686;2023-02-01T02:03:25;14.40;;;7.20;;
57643;SDS011;43474;46.510;6.686;2023-02-01T02:05:59;18.10;;;7.47;;
57643;SDS011;43474;46.510;6.686;2023-02-01T02:08:26;17.80;;;8.27;;
57643;SDS011;43474;46.510;6.686;2023-02-01T02:10:53;15.13;;;7.78;;
57643;SDS011;43474;46.510;6.686;2023-02-01T02:13:35;18.83;;;8.35;;
57643;SDS011;43474;46.510;6.686;2023-02-01T02:18:44;16.10;;;7.78;;
57643;SDS011;43474;46.510;6.686;2023-02-01T02:30:02;15.93;;;7.40;;
57643;SDS011;43474;46.510;6.686;2023-02-01T02:35:50;15.48;;;6.03;;
57643;SDS011;43474;46.510;6.686;2023-02-01T02:40:49;15.48;;;7.38;;
57643;SDS011;43474;46.510;6.686;2023-02-01T02:46:34;15.55;;;6.53;;
57643;SDS011;43474;46.510;6.686;2023-02-01T02:49:35;11.88;;;5.68;;
57643;SDS011;43474;46.510;6.686;2023-02-01T02:52:08;15.27;;;6.60;;
57643;SDS011;43474;46.510;6.686;2023-02-01T03:00:29;12.82;;;5.68;;
57643;SDS011;43474;46.510;6.686;2023-02-01T03:03:16;12.35;;;6.47;;
57643;SDS011;43474;46.510;6.686;2023-02-01T03:06:01;15.70;;;6.38;;
57643;SDS011;43474;46.510;6.686;2023-02-01T03:08:27;11.50;;;6.20;;
57643;SDS011;43474;46.510;6.686;2023-02-01T03:10:56;13.23;;;6.68;;
57643;SDS011;43474;46.510;6.686;2023-02-01T03:16:09;14.98;;;6.95;;
57643;SDS011;43474;46.510;6.686;2023-02-01T03:21:10;19.33;;;8.02;;
57643;SDS011;43474;46.510;6.686;2023-02-01T03:23:41;16.15;;;7.63;;
57643;SDS011;43474;46.510;6.686;2023-02-01T03:26:10;17.00;;;7.78;;
57643;SDS011;43474;46.510;6.686;2023-02-01T03:28:42;18.00;;;7.32;;
57643;SDS011;43474;46.510;6.686;2023-02-01T03:31:10;15.90;;;7.15;;
57643;SDS011;43474;46.510;6.686;2023-02-01T03:33:36;16.35;;;7.68;;
57643;SDS011;43474;46.510;6.686;2023-02-01T03:36:08;17.70;;;8.57;;
57643;SDS011;43474;46.510;6.686;2023-02-01T03:38:42;17.10;;;8.30;;
57643;SDS011;43474;46.510;6.686;2023-02-01T03:41:38;23.17;;;10.63;;
57643;SDS011;43474;46.510;6.686;2023-02-01T03:46:59;20.60;;;8.95;;
57643;SDS011;43474;46.510;6.686;2023-02-01T03:49:29;18.83;;;9.35;;
57643;SDS011;43474;46.510;6.686;2023-02-01T03:51:59;17.85;;;8.55;;
57643;SDS011;43474;46.510;6.686;2023-02-01T03:54:26;20.80;;;9.57;;
57643;SDS011;43474;46.510;6.686;2023-02-01T03:56:54;20.88;;;9.98;;
57643;SDS011;43474;46.510;6.686;2023-02-01T03:59:21;21.95;;;9.38;;
57643;SDS011;43474;46.510;6.686;2023-02-01T04:01:47;22.80;;;9.45;;
57643;SDS011;43474;46.510;6.686;2023-02-01T04:04:13;24.48;;;10.45;;
57643;SDS011;43474;46.510;6.686;2023-02-01T04:06:51;22.65;;;11.35;;
57643;SDS011;43474;46.510;6.686;2023-02-01T04:09:17;25.67;;;11.00;;
57643;SDS011;43474;46.510;6.686;2023-02-01T04:11:43;28.63;;;10.85;;
57643;SDS011;43474;46.510;6.686;2023-02-01T04:14:08;22.25;;;10.77;;
57643;SDS011;43474;46.510;6.686;2023-02-01T04:16:34;23.88;;;9.98;;
57643;SDS011;43474;46.510;6.686;2023-02-01T04:19:00;22.33;;;9.30;;
57643;SDS011;43474;46.510;6.686;2023-02-01T04:21:26;24.20;;;10.52;;
57643;SDS011;43474;46.510;6.686;2023-02-01T04:23:52;22.85;;;10.32;;
57643;SDS011;43474;46.510;6.686;2023-02-01T04:26:18;22.13;;;10.18;;
57643;SDS011;43474;46.510;6.686;2023-02-01T04:28:44;23.45;;;10.18;;
57643;SDS011;43474;46.510;6.686;2023-02-01T04:31:16;25.45;;;11.60;;
57643;SDS011;43474;46.510;6.686;2023-02-01T04:33:43;29.48;;;10.65;;
57643;SDS011;43474;46.510;6.686;2023-02-01T04:36:09;24.23;;;10.18;;
57643;SDS011;43474;46.510;6.686;2023-02-01T04:38:35;24.20;;;10.57;;
57643;SDS011;43474;46.510;6.686;2023-02-01T04:41:01;24.67;;;10.80;;
57643;SDS011;43474;46.510;6.686;2023-02-01T04:43:27;23.95;;;10.68;;
57643;SDS011;43474;46.510;6.686;2023-02-01T04:45:52;22.50;;;10.82;;
57643;SDS011;43474;46.510;6.686;2023-02-01T04:48:19;25.35;;;10.38;;
57643;SDS011;43474;46.510;6.686;2023-02-01T04:50:46;24.98;;;11.57;;
57643;SDS011;43474;46.510;6.686;2023-02-01T04:53:15;26.75;;;10.75;;
57643;SDS011;43474;46.510;6.686;2023-02-01T04:55:41;29.52;;;11.25;;
57643;SDS011;43474;46.510;6.686;2023-02-01T04:58:07;28.92;;;11.70;;
57643;SDS011;43474;46.510;6.686;2023-02-01T05:00:34;23.50;;;10.05;;
57643;SDS011;43474;46.510;6.686;2023-02-01T05:02:59;27.80;;;11.45;;
57643;SDS011;43474;46.510;6.686;2023-02-01T05:05:26;27.35;;;11.00;;
57643;SDS011;43474;46.510;6.686;2023-02-01T05:07:51;20.60;;;9.43;;
57643;SDS011;43474;46.510;6.686;2023-02-01T05:10:17;27.10;;;10.77;;
57643;SDS011;43474;46.510;6.686;2023-02-01T05:12:43;22.42;;;10.10;;
57643;SDS011;43474;46.510;6.686;2023-02-01T05:15:28;18.42;;;8.63;;
57643;SDS011;43474;46.510;6.686;2023-02-01T05:17:54;21.05;;;8.57;;
57643;SDS011;43474;46.510;6.686;2023-02-01T05:20:20;16.73;;;8.32;;
57643;SDS011;43474;46.510;6.686;2023-02-01T05:22:45;16.52;;;8.68;;
57643;SDS011;43474;46.510;6.686;2023-02-01T05:25:11;19.45;;;8.05;;
57643;SDS011;43474;46.510;6.686;2023-02-01T05:27:36;16.13;;;7.97;;
57643;SDS011;43474;46.510;6.686;2023-02-01T05:30:05;17.42;;;7.97;;
57643;SDS011;43474;46.510;6.686;2023-02-01T05:32:32;20.25;;;7.72;;
57643;SDS011;43474;46.510;6.686;2023-02-01T05:34:57;14.57;;;6.68;;
57643;SDS011;43474;46.510;6.686;2023-02-01T05:37:23;19.60;;;8.27;;
57643;SDS011;43474;46.510;6.686;2023-02-01T05:39:49;15.00;;;6.63;;
57643;SDS011;43474;46.510;6.686;2023-02-01T05:42:14;17.27;;;7.38;;
57643;SDS011;43474;46.510;6.686;2023-02-01T05:44:40;16.25;;;7.25;;
57643;SDS011;43474;46.510;6.686;2023-02-01T05:47:06;16.55;;;7.07;;
57643;SDS011;43474;46.510;6.686;2023-02-01T05:49:32;13.95;;;6.00;;
57643;SDS011;43474;46.510;6.686;2023-02-01T05:51:58;15.85;;;6.53;;
57643;SDS011;43474;46.510;6.686;2023-02-01T05:54:24;11.38;;;6.00;;
57643;SDS011;43474;46.510;6.686;2023-02-01T05:56:49;15.73;;;5.78;;
57643;SDS011;43474;46.510;6.686;2023-02-01T05:59:15;14.00;;;6.03;;
57643;SDS011;43474;46.510;6.686;2023-02-01T06:01:40;15.60;;;6.55;;
57643;SDS011;43474;46.510;6.686;2023-02-01T06:04:06;15.15;;;6.47;;
57643;SDS011;43474;46.510;6.686;2023-02-01T06:06:32;12.07;;;5.38;;
57643;SDS011;43474;46.510;6.686;2023-02-01T06:08:57;14.30;;;6.30;;
57643;SDS011;43474;46.510;6.686;2023-02-01T06:11:23;14.20;;;6.10;;
57643;SDS011;43474;46.510;6.686;2023-02-01T06:13:49;13.48;;;6.35;;
57643;SDS011;43474;46.510;6.686;2023-02-01T06:16:15;12.93;;;6.43;;
57643;SDS011;43474;46.510;6.686;2023-02-01T06:18:41;12.88;;;6.10;;
57643;SDS011;43474;46.510;6.686;2023-02-01T06:21:07;12.05;;;5.70;;
57643;SDS011;43474;46.510;6.686;2023-02-01T06:23:33;12.68;;;5.40;;
57643;SDS011;43474;46.510;6.686;2023-02-01T06:25:59;13.27;;;6.25;;
57643;SDS011;43474;46.510;6.686;2023-02-01T06:28:27;11.13;;;5.13;;
57643;SDS011;43474;46.510;6.686;2023-02-01T06:30:54;10.55;;;4.85;;
57643;SDS011;43474;46.510;6.686;2023-02-01T06:33:20;14.05;;;5.60;;
57643;SDS011;43474;46.510;6.686;2023-02-01T06:35:45;11.20;;;4.93;;
57643;SDS011;43474;46.510;6.686;2023-02-01T06:38:12;11.15;;;5.32;;
57643;SDS011;43474;46.510;6.686;2023-02-01T06:40:38;11.40;;;5.47;;
57643;SDS011;43474;46.510;6.686;2023-02-01T06:43:07;11.80;;;5.13;;
57643;SDS011;43474;46.510;6.686;2023-02-01T06:45:32;12.98;;;5.40;;
57643;SDS011;43474;46.510;6.686;2023-02-01T06:47:59;12.20;;;5.90;;
57643;SDS011;43474;46.510;6.686;2023-02-01T06:50:25;13.80;;;5.13;;
57643;SDS011;43474;46.510;6.686;2023-02-01T06:52:52;12.02;;;4.72;;
57643;SDS011;43474;46.510;6.686;2023-02-01T06:55:17;12.27;;;4.63;;
57643;SDS011;43474;46.510;6.686;2023-02-01T06:57:43;9.27;;;5.18;;
57643;SDS011;43474;46.510;6.686;2023-02-01T07:00:09;11.43;;;4.85;;
57643;SDS011;43474;46.510;6.686;2023-02-01T07:02:35;10.65;;;5.15;;
57643;SDS011;43474;46.510;6.686;2023-02-01T07:05:00;11.68;;;5.43;;
57643;SDS011;43474;46.510;6.686;2023-02-01T07:07:26;8.18;;;5.05;;
57643;SDS011;43474;46.510;6.686;2023-02-01T07:09:51;8.77;;;4.18;;
57643;SDS011;43474;46.510;6.686;2023-02-01T07:12:18;12.65;;;5.13;;
57643;SDS011;43474;46.510;6.686;2023-02-01T07:14:44;10.30;;;4.47;;
57643;SDS011;43474;46.510;6.686;2023-02-01T07:17:09;14.38;;;4.65;;
57643;SDS011;43474;46.510;6.686;2023-02-01T07:19:35;10.38;;;4.90;;
57643;SDS011;43474;46.510;6.686;2023-02-01T07:22:00;11.55;;;4.60;;
57643;SDS011;43474;46.510;6.686;2023-02-01T07:24:26;9.43;;;4.85;;
57643;SDS011;43474;46.510;6.686;2023-02-01T07:26:51;11.48;;;5.07;;
57643;SDS011;43474;46.510;6.686;2023-02-01T07:29:17;8.52;;;4.20;;
57643;SDS011;43474;46.510;6.686;2023-02-01T07:31:43;12.57;;;5.05;;
57643;SDS011;43474;46.510;6.686;2023-02-01T07:34:09;9.57;;;4.63;;
57643;SDS011;43474;46.510;6.686;2023-02-01T07:36:35;11.00;;;4.88;;
57643;SDS011;43474;46.510;6.686;2023-02-01T07:39:01;9.93;;;5.20;;
57643;SDS011;43474;46.510;6.686;2023-02-01T07:41:30;9.23;;;4.85;;
57643;SDS011;43474;46.510;6.686;2023-02-01T07:43:56;8.48;;;4.68;;
57643;SDS011;43474;46.510;6.686;2023-02-01T07:46:22;7.97;;;4.45;;
57643;SDS011;43474;46.510;6.686;2023-02-01T07:48:48;14.27;;;6.25;;
57643;SDS011;43474;46.510;6.686;2023-02-01T07:51:14;13.55;;;6.50;;
57643;SDS011;43474;46.510;6.686;2023-02-01T07:53:42;15.43;;;7.45;;
57643;SDS011;43474;46.510;6.686;2023-02-01T07:56:12;17.13;;;8.00;;
57643;SDS011;43474;46.510;6.686;2023-02-01T07:58:39;18.38;;;8.30;;
57643;SDS011;43474;46.510;6.686;2023-02-01T08:01:05;15.55;;;7.53;;
57643;SDS011;43474;46.510;6.686;2023-02-01T08:03:46;19.95;;;8.18;;
57643;SDS011;43474;46.510;6.686;2023-02-01T08:06:13;22.13;;;7.93;;
57643;SDS011;43474;46.510;6.686;2023-02-01T08:08:38;17.60;;;9.05;;
57643;SDS011;43474;46.510;6.686;2023-02-01T08:11:05;15.50;;;7.07;;
57643;SDS011;43474;46.510;6.686;2023-02-01T08:13:33;16.23;;;7.28;;
57643;SDS011;43474;46.510;6.686;2023-02-01T08:16:00;17.38;;;7.70;;
57643;SDS011;43474;46.510;6.686;2023-02-01T08:18:28;16.58;;;7.65;;
57643;SDS011;43474;46.510;6.686;2023-02-01T08:20:54;18.63;;;8.38;;
57643;SDS011;43474;46.510;6.686;2023-02-01T08:23:20;16.25;;;8.32;;
57643;SDS011;43474;46.510;6.686;2023-02-01T08:25:47;15.35;;;7.55;;
57643;SDS011;43474;46.510;6.686;2023-02-01T08:28:12;15.98;;;8.05;;
57643;SDS011;43474;46.510;6.686;2023-02-01T08:30:38;16.42;;;8.27;;
57643;SDS011;43474;46.510;6.686;2023-02-01T08:33:05;16.20;;;8.05;;
57643;SDS011;43474;46.510;6.686;2023-02-01T08:35:34;14.98;;;7.60;;
57643;SDS011;43474;46.510;6.686;2023-02-01T08:38:00;16.50;;;7.63;;
57643;SDS011;43474;46.510;6.686;2023-02-01T08:40:26;12.98;;;7.20;;
57643;SDS011;43474;46.510;6.686;2023-02-01T08:42:51;17.55;;;7.65;;
57643;SDS011;43474;46.510;6.686;2023-02-01T08:45:18;17.08;;;7.85;;
57643;SDS011;43474;46.510;6.686;2023-02-01T08:47:45;16.73;;;7.57;;
57643;SDS011;43474;46.510;6.686;2023-02-01T08:50:12;14.35;;;7.28;;
57643;SDS011;43474;46.510;6.686;2023-02-01T08:52:38;14.13;;;6.78;;
57643;SDS011;43474;46.510;6.686;2023-02-01T08:55:05;13.63;;;6.85;;
57643;SDS011;43474;46.510;6.686;2023-02-01T08:57:31;17.15;;;7.70;;
57643;SDS011;43474;46.510;6.686;2023-02-01T08:59:58;15.00;;;7.40;;
57643;SDS011;43474;46.510;6.686;2023-02-01T09:02:24;18.48;;;7.18;;
57643;SDS011;43474;46.510;6.686;2023-02-01T09:04:50;13.23;;;7.35;;
57643;SDS011;43474;46.510;6.686;2023-02-01T09:07:16;13.27;;;6.65;;
57643;SDS011;43474;46.510;6.686;2023-02-01T09:09:43;16.17;;;8.13;;
57643;SDS011;43474;46.510;6.686;2023-02-01T09:12:09;11.88;;;6.63;;
57643;SDS011;43474;46.510;6.686;2023-02-01T09:14:35;16.15;;;7.32;;
57643;SDS011;43474;46.510;6.686;2023-02-01T09:17:00;15.38;;;7.65;;
57643;SDS011;43474;46.510;6.686;2023-02-01T09:19:26;16.35;;;7.85;;
57643;SDS011;43474;46.510;6.686;2023-02-01T09:21:51;23.85;;;9.63;;
57643;SDS011;43474;46.510;6.686;2023-02-01T09:24:17;16.58;;;8.80;;
57643;SDS011;43474;46.510;6.686;2023-02-01T09:26:43;15.77;;;9.02;;
57643;SDS011;43474;46.510;6.686;2023-02-01T09:29:09;16.90;;;7.85;;
57643;SDS011;43474;46.510;6.686;2023-02-01T09:31:38;15.93;;;7.20;;
57643;SDS011;43474;46.510;6.686;2023-02-01T09:34:05;16.70;;;8.82;;
57643;SDS011;43474;46.510;6.686;2023-02-01T09:36:31;18.33;;;9.57;;
57643;SDS011;43474;46.510;6.686;2023-02-01T09:38:58;17.65;;;8.55;;
57643;SDS011;43474;46.510;6.686;2023-02-01T09:41:26;18.45;;;8.25;;
57643;SDS011;43474;46.510;6.686;2023-02-01T09:44:13;20.38;;;9.88;;
57643;SDS011;43474;46.510;6.686;2023-02-01T09:46:46;14.25;;;8.07;;
57643;SDS011;43474;46.510;6.686;2023-02-01T09:49:14;17.73;;;9.23;;
57643;SDS011;43474;46.510;6.686;2023-02-01T09:51:44;15.10;;;8.68;;
57643;SDS011;43474;46.510;6.686;2023-02-01T09:54:24;18.27;;;9.18;;
57643;SDS011;43474;46.510;6.686;2023-02-01T09:59:40;17.67;;;7.28;;
57643;SDS011;43474;46.510;6.686;2023-02-01T10:02:23;18.55;;;7.57;;
57643;SDS011;43474;46.510;6.686;2023-02-01T10:04:52;14.20;;;7.80;;
57643;SDS011;43474;46.510;6.686;2023-02-01T10:07:30;15.38;;;8.13;;
57643;SDS011;43474;46.510;6.686;2023-02-01T10:27:33;15.23;;;7.32;;
57643;SDS011;43474;46.510;6.686;2023-02-01T10:29:43;12.20;;;7.47;;
57643;SDS011;43474;46.510;6.686;2023-02-01T10:32:20;12.85;;;7.45;;
57643;SDS011;43474;46.510;6.686;2023-02-01T10:34:52;10.85;;;6.28;;
57643;SDS011;43474;46.510;6.686;2023-02-01T10:37:32;10.63;;;5.60;;
57643;SDS011;43474;46.510;6.686;2023-02-01T10:40:09;14.10;;;6.35;;
57643;SDS011;43474;46.510;6.686;2023-02-01T10:42:41;9.85;;;5.97;;
57643;SDS011;43474;46.510;6.686;2023-02-01T10:45:11;15.40;;;6.63;;
57643;SDS011;43474;46.510;6.686;2023-02-01T10:47:41;11.15;;;5.97;;
57643;SDS011;43474;46.510;6.686;2023-02-01T10:55:51;12.48;;;6.35;;
57643;SDS011;43474;46.510;6.686;2023-02-01T10:58:29;10.50;;;5.72;;
57643;SDS011;43474;46.510;6.686;2023-02-01T11:01:09;11.55;;;5.55;;
57643;SDS011;43474;46.510;6.686;2023-02-01T11:06:18;13.70;;;6.00;;
57643;SDS011;43474;46.510;6.686;2023-02-01T11:08:54;12.43;;;5.70;;
57643;SDS011;43474;46.510;6.686;2023-02-01T11:11:22;12.43;;;6.53;;
57643;SDS011;43474;46.510;6.686;2023-02-01T11:13:53;12.15;;;6.18;;
57643;SDS011;43474;46.510;6.686;2023-02-01T11:16:37;8.90;;;5.78;;
57643;SDS011;43474;46.510;6.686;2023-02-01T11:19:04;13.35;;;6.65;;
57643;SDS011;43474;46.510;6.686;2023-02-01T11:21:30;12.07;;;5.88;;
57643;SDS011;43474;46.510;6.686;2023-02-01T11:24:03;11.27;;;6.63;;
57643;SDS011;43474;46.510;6.686;2023-02-01T11:26:30;11.90;;;6.25;;
57643;SDS011;43474;46.510;6.686;2023-02-01T11:31:28;9.50;;;6.20;;
57643;SDS011;43474;46.510;6.686;2023-02-01T11:33:57;9.95;;;5.72;;
57643;SDS011;43474;46.510;6.686;2023-02-01T11:36:32;7.95;;;5.38;;
57643;SDS011;43474;46.510;6.686;2023-02-01T11:41:55;8.85;;;5.45;;
57643;SDS011;43474;46.510;6.686;2023-02-01T11:44:35;8.95;;;5.00;;
57643;SDS011;43474;46.510;6.686;2023-02-01T11:47:18;12.90;;;5.93;;
57643;SDS011;43474;46.510;6.686;2023-02-01T11:49:44;12.20;;;6.28;;
57643;SDS011;43474;46.510;6.686;2023-02-01T12:00:48;8.93;;;5.53;;
57643;SDS011;43474;46.510;6.686;2023-02-01T12:03:26;8.15;;;5.25;;
57643;SDS011;43474;46.510;6.686;2023-02-01T12:06:08;10.18;;;5.78;;
57643;SDS011;43474;46.510;6.686;2023-02-01T12:19:47;9.82;;;5.57;;
57643;SDS011;43474;46.510;6.686;2023-02-01T12:25:20;8.60;;;4.35;;
57643;SDS011;43474;46.510;6.686;2023-02-01T12:30:43;8.90;;;5.13;;
57643;SDS011;43474;46.510;6.686;2023-02-01T12:35:56;8.32;;;5.00;;
57643;SDS011;43474;46.510;6.686;2023-02-01T12:41:31;8.82;;;5.03;;
57643;SDS011;43474;46.510;6.686;2023-02-01T12:44:03;7.43;;;5.03;;
57643;SDS011;43474;46.510;6.686;2023-02-01T12:47:38;10.40;;;6.85;;
57643;SDS011;43474;46.510;6.686;2023-02-01T12:49:40;9.85;;;6.25;;
57643;SDS011;43474;46.510;6.686;2023-02-01T12:52:57;12.30;;;6.38;;
57643;SDS011;43474;46.510;6.686;2023-02-01T12:58:01;8.43;;;4.70;;
57643;SDS011;43474;46.510;6.686;2023-02-01T13:00:37;8.48;;;4.97;;
57643;SDS011;43474;46.510;6.686;2023-02-01T13:03:15;9.73;;;4.63;;
57643;SDS011;43474;46.510;6.686;2023-02-01T13:05:53;13.65;;;4.80;;
57643;SDS011;43474;46.510;6.686;2023-02-01T13:08:23;9.55;;;4.95;;
57643;SDS011;43474;46.510;6.686;2023-02-01T13:11:09;8.23;;;4.33;;
57643;SDS011;43474;46.510;6.686;2023-02-01T13:16:40;10.13;;;5.13;;
57643;SDS011;43474;46.510;6.686;2023-02-01T13:19:10;11.57;;;5.43;;
57643;SDS011;43474;46.510;6.686;2023-02-01T13:21:45;10.23;;;5.50;;
57643;SDS011;43474;46.510;6.686;2023-02-01T13:24:33;10.35;;;5.68;;
57643;SDS011;43474;46.510;6.686;2023-02-01T13:27:04;10.90;;;5.82;;
57643;SDS011;43474;46.510;6.686;2023-02-01T13:29:30;12.05;;;5.35;;
57643;SDS011;43474;46.510;6.686;2023-02-01T13:32:04;10.95;;;5.80;;
57643;SDS011;43474;46.510;6.686;2023-02-01T13:38:03;10.13;;;5.95;;
57643;SDS011;43474;46.510;6.686;2023-02-01T13:45:53;11.50;;;5.80;;
57643;SDS011;43474;46.510;6.686;2023-02-01T13:50:57;9.90;;;5.85;;
57643;SDS011;43474;46.510;6.686;2023-02-01T13:53:28;8.65;;;5.57;;
57643;SDS011;43474;46.510;6.686;2023-02-01T13:56:16;11.15;;;6.38;;
57643;SDS011;43474;46.510;6.686;2023-02-01T13:58:44;12.23;;;6.15;;
57643;SDS011;43474;46.510;6.686;2023-02-01T14:03:55;11.27;;;5.90;;
57643;SDS011;43474;46.510;6.686;2023-02-01T14:11:45;9.63;;;5.90;;
57643;SDS011;43474;46.510;6.686;2023-02-01T14:19:21;11.75;;;5.45;;
57643;SDS011;43474;46.510;6.686;2023-02-01T14:21:54;10.93;;;5.78;;
57643;SDS011;43474;46.510;6.686;2023-02-01T14:24:27;13.25;;;6.13;;
57643;SDS011;43474;46.510;6.686;2023-02-01T14:26:55;10.27;;;5.40;;
57643;SDS011;43474;46.510;6.686;2023-02-01T14:29:34;8.15;;;5.00;;
57643;SDS011;43474;46.510;6.686;2023-02-01T14:32:23;11.15;;;5.38;;
57643;SDS011;43474;46.510;6.686;2023-02-01T14:34:51;10.68;;;5.70;;
57643;SDS011;43474;46.510;6.686;2023-02-01T14:40:00;7.40;;;4.72;;
57643;SDS011;43474;46.510;6.686;2023-02-01T14:44:56;8.15;;;4.57;;
57643;SDS011;43474;46.510;6.686;2023-02-01T14:47:40;10.85;;;5.22;;
57643;SDS011;43474;46.510;6.686;2023-02-01T14:52:35;12.45;;;5.43;;
57643;SDS011;43474;46.510;6.686;2023-02-01T14:55:51;8.13;;;5.07;;
57643;SDS011;43474;46.510;6.686;2023-02-01T14:58:06;10.75;;;5.40;;
57643;SDS011;43474;46.510;6.686;2023-02-01T15:00:48;11.20;;;6.07;;
57643;SDS011;43474;46.510;6.686;2023-02-01T15:09:11;8.30;;;4.90;;
57643;SDS011;43474;46.510;6.686;2023-02-01T15:14:28;13.68;;;6.05;;
57643;SDS011;43474;46.510;6.686;2023-02-01T15:16:56;10.40;;;5.78;;
57643;SDS011;43474;46.510;6.686;2023-02-01T15:19:22;10.68;;;5.78;;
57643;SDS011;43474;46.510;6.686;2023-02-01T15:21:53;9.77;;;5.80;;
57643;SDS011;43474;46.510;6.686;2023-02-01T15:24:25;10.00;;;5.70;;
57643;SDS011;43474;46.510;6.686;2023-02-01T15:26:53;9.95;;;5.38;;
57643;SDS011;43474;46.510;6.686;2023-02-01T15:29:21;10.65;;;6.03;;
57643;SDS011;43474;46.510;6.686;2023-02-01T15:31:51;14.83;;;6.43;;
57643;SDS011;43474;46.510;6.686;2023-02-01T15:34:18;13.88;;;5.85;;
57643;SDS011;43474;46.510;6.686;2023-02-01T15:36:45;12.25;;;6.40;;
57643;SDS011;43474;46.510;6.686;2023-02-01T15:39:16;9.70;;;5.82;;
57643;SDS011;43474;46.510;6.686;2023-02-01T15:41:46;10.88;;;6.03;;
57643;SDS011;43474;46.510;6.686;2023-02-01T15:44:18;13.75;;;5.93;;
57643;SDS011;43474;46.510;6.686;2023-02-01T15:46:48;10.38;;;6.35;;
57643;SDS011;43474;46.510;6.686;2023-02-01T15:49:50;10.40;;;5.75;;
57643;SDS011;43474;46.510;6.686;2023-02-01T15:52:13;11.88;;;6.90;;
57643;SDS011;43474;46.510;6.686;2023-02-01T15:54:46;11.38;;;5.75;;
57643;SDS011;43474;46.510;6.686;2023-02-01T15:57:31;14.73;;;6.95;;
57643;SDS011;43474;46.510;6.686;2023-02-01T16:00:00;13.20;;;6.28;;
57643;SDS011;43474;46.510;6.686;2023-02-01T16:05:02;14.77;;;6.65;;
57643;SDS011;43474;46.510;6.686;2023-02-01T16:07:30;10.32;;;5.53;;
57643;SDS011;43474;46.510;6.686;2023-02-01T16:09:59;11.13;;;5.90;;
57643;SDS011;43474;46.510;6.686;2023-02-01T16:15:04;9.80;;;5.78;;
57643;SDS011;43474;46.510;6.686;2023-02-01T16:17:31;12.10;;;6.65;;
57643;SDS011;43474;46.510;6.686;2023-02-01T16:19:56;13.05;;;6.40;;
57643;SDS011;43474;46.510;6.686;2023-02-01T16:22:23;15.00;;;6.88;;
57643;SDS011;43474;46.510;6.686;2023-02-01T16:24:49;15.07;;;6.78;;
57643;SDS011;43474;46.510;6.686;2023-02-01T16:27:15;14.27;;;7.25;;
57643;SDS011;43474;46.510;6.686;2023-02-01T16:29:40;14.85;;;7.03;;
57643;SDS011;43474;46.510;6.686;2023-02-01T16:32:08;12.55;;;6.53;;
57643;SDS011;43474;46.510;6.686;2023-02-01T16:34:41;13.07;;;6.95;;
57643;SDS011;43474;46.510;6.686;2023-02-01T16:37:11;11.98;;;6.07;;
57643;SDS011;43474;46.510;6.686;2023-02-01T16:39:38;16.00;;;7.07;;
57643;SDS011;43474;46.510;6.686;2023-02-01T16:42:13;13.93;;;7.47;;
57643;SDS011;43474;46.510;6.686;2023-02-01T16:44:40;14.00;;;6.25;;
57643;SDS011;43474;46.510;6.686;2023-02-01T16:47:17;11.90;;;6.50;;
57643;SDS011;43474;46.510;6.686;2023-02-01T16:49:44;12.25;;;6.88;;
57643;SDS011;43474;46.510;6.686;2023-02-01T16:52:12;14.77;;;7.03;;
57643;SDS011;43474;46.510;6.686;2023-02-01T16:54:49;11.27;;;6.35;;
57643;SDS011;43474;46.510;6.686;2023-02-01T16:57:16;12.43;;;6.95;;
57643;SDS011;43474;46.510;6.686;2023-02-01T16:59:42;12.90;;;6.80;;
57643;SDS011;43474;46.510;6.686;2023-02-01T17:02:14;14.75;;;7.32;;
57643;SDS011;43474;46.510;6.686;2023-02-01T17:04:41;15.60;;;7.03;;
57643;SDS011;43474;46.510;6.686;2023-02-01T17:07:09;13.05;;;6.30;;
57643;SDS011;43474;46.510;6.686;2023-02-01T17:09:38;11.38;;;6.32;;
57643;SDS011;43474;46.510;6.686;2023-02-01T17:12:04;14.30;;;6.93;;
57643;SDS011;43474;46.510;6.686;2023-02-01T17:14:31;13.95;;;6.38;;
57643;SDS011;43474;46.510;6.686;2023-02-01T17:17:00;13.85;;;7.55;;
57643;SDS011;43474;46.510;6.686;2023-02-01T17:19:25;15.98;;;7.13;;